Anchorage, Kentucky
Current Conditions -  °F | °C
As of 7:53 PM on Thursday 18 Dec 2014 (Local Time) from KLOU Reporting Station
Overcast Overcast  
Wind Chill: 27°   Ceiling: 7500
Heat Index: 32°   Visibility: 9mi
Dew Point: 23°   Wind: 5mph
Humidity: 69%   Direction: 340°NNW
Pressure: 30.25"   Gusts: NA
Location:  38.2621°N, 85.5415°W
Report Text: KLOU 190053Z 34004KT 9SM OVC075 00/M05 A3025 RMK AO2 SLP250 T00001050
Loading
Personal Weather Stations






























Interactive Weather Map New forecast layout! Learn more

10-Day Weather Forecast

Advertisements
Track Severe Weather on mobile